Time;durP1;ratioP1;P1;durP2;ratioP2;P2;SDS_P1;SDS_P2;PMS_P1;PMS_P2;Temp;Humidity;BMP_temperature;BMP_pressure;BME280_temperature;BME280_humidity;BME280_pressure;Samples;Min_cycle;Max_cycle;Signal;HPM_P1;HPM_P2
2022/09/28 00:02:20;;;;;;;4.18;2.47;;;;;;;9.15;100.00;98541.81;4872967;29;20460;-71
2022/09/28 00:04:47;;;;;;;6.63;2.65;;;;;;;9.12;100.00;98535.94;4898732;29;20048;-73
2022/09/28 00:07:13;;;;;;;3.70;2.40;;;;;;;9.18;100.00;98532.84;4882010;29;20466;-74
2022/09/28 00:09:40;;;;;;;7.50;2.45;;;;;;;9.24;100.00;98523.66;4887235;29;20132;-69
2022/09/28 00:12:07;;;;;;;2.90;2.38;;;;;;;9.02;100.00;98488.19;4884920;29;20646;-72
2022/09/28 00:14:33;;;;;;;3.30;2.55;;;;;;;9.22;100.00;98520.28;4893778;29;20091;-72
2022/09/28 00:17:00;;;;;;;5.57;3.10;;;;;;;9.09;100.00;98483.34;4888075;29;20061;-71
2022/09/28 00:19:27;;;;;;;5.03;2.80;;;;;;;9.11;100.00;98499.91;4872902;29;20049;-73
2022/09/28 00:21:53;;;;;;;3.72;2.50;;;;;;;9.18;100.00;98506.44;4887500;29;20559;-73
2022/09/28 00:24:20;;;;;;;4.72;2.97;;;;;;;9.00;100.00;98470.78;4889453;29;20457;-74
2022/09/28 00:26:55;;;;;;;4.22;2.90;;;;;;;9.09;100.00;98484.19;4889172;29;20067;-71
2022/09/28 00:29:26;;;;;;;5.10;2.85;;;;;;;9.05;100.00;98476.59;4891575;29;20056;-71
2022/09/28 00:32:00;;;;;;;4.10;3.10;;;;;;;9.05;100.00;98482.72;4877999;29;20056;-72
2022/09/28 00:34:30;;;;;;;3.75;2.85;;;;;;;9.07;100.00;98464.13;4886825;29;20405;-74
2022/09/28 00:36:58;;;;;;;5.17;2.70;;;;;;;9.07;100.00;98479.97;4890931;29;20076;-73
2022/09/28 00:39:26;;;;;;;5.43;3.38;;;;;;;9.05;100.00;98473.94;4886117;29;20502;-73
2022/09/28 00:41:53;;;;;;;6.30;3.45;;;;;;;9.00;100.00;98461.06;4888095;29;20563;-70
2022/09/28 00:44:25;;;;;;;7.18;2.88;;;;;;;9.04;100.00;98469.63;4886613;29;20092;-72
2022/09/28 00:46:59;;;;;;;5.85;2.97;;;;;;;9.06;100.00;98455.34;4886055;29;20143;-73
2022/09/28 00:49:55;;;;;;;5.22;3.15;;;;;;;9.06;100.00;98446.59;4896976;29;20068;-78
2022/09/28 00:52:38;;;;;;;6.47;3.67;;;;;;;9.05;100.00;98444.91;4894418;29;20460;-71
2022/09/28 00:55:10;;;;;;;4.88;3.40;;;;;;;9.04;100.00;98435.28;4890345;29;20086;-71
2022/09/28 00:57:40;;;;;;;4.35;3.17;;;;;;;9.10;100.00;98432.22;4887741;29;20060;-74
2022/09/28 01:00:07;;;;;;;4.30;3.78;;;;;;;8.90;100.00;98401.13;4887106;29;20468;-75
2022/09/28 01:02:34;;;;;;;6.03;3.72;;;;;;;9.04;100.00;98422.09;4882306;29;20147;-72
2022/09/28 01:05:04;;;;;;;6.65;4.10;;;;;;;9.04;100.00;98411.53;4890579;29;20048;-76
2022/09/28 01:07:31;;;;;;;5.68;3.92;;;;;;;9.00;100.00;98392.41;4882558;29;20151;-72
2022/09/28 01:09:58;;;;;;;4.95;3.40;;;;;;;9.12;100.00;98406.56;4887915;29;20515;-71
2022/09/28 01:12:24;;;;;;;5.72;3.90;;;;;;;9.11;100.00;98396.94;4889438;29;20175;-72
2022/09/28 01:14:51;;;;;;;5.15;3.80;;;;;;;9.12;100.00;98393.34;4888869;29;20052;-74
2022/09/28 01:17:25;;;;;;;8.35;4.47;;;;;;;9.04;100.00;98364.00;4883619;29;20045;-68
2022/09/28 01:20:06;;;;;;;4.53;3.65;;;;;;;9.18;100.00;98390.25;4890921;29;20049;-72
2022/09/28 01:22:33;;;;;;;5.63;4.32;;;;;;;9.01;100.00;98369.50;4884434;29;20053;-75
2022/09/28 01:25:11;;;;;;;6.05;4.28;;;;;;;9.02;100.00;98372.03;4888501;29;20583;-75
2022/09/28 01:27:46;;;;;;;5.15;3.95;;;;;;;9.06;100.00;98372.66;4888175;29;20510;-72
2022/09/28 01:30:16;;;;;;;4.80;4.18;;;;;;;9.06;100.00;98383.22;4891179;29;20136;-73
2022/09/28 01:32:50;;;;;;;9.35;5.03;;;;;;;8.97;100.00;98352.22;4885310;29;20057;-70
2022/09/28 01:35:29;;;;;;;6.38;4.40;;;;;;;8.86;100.00;98325.75;4889705;29;20065;-70
2022/09/28 01:38:04;;;;;;;7.10;5.00;;;;;;;9.15;100.00;98366.69;4886441;29;20060;-76
2022/09/28 01:40:33;;;;;;;6.63;4.90;;;;;;;9.19;100.00;98362.88;4885558;29;20061;-76
2022/09/28 01:43:24;;;;;;;6.22;4.93;;;;;;;9.22;100.00;98362.66;4889084;29;20056;-74
2022/09/28 01:46:18;;;;;;;6.00;5.40;;;;;;;9.24;100.00;98363.41;4882058;29;20052;-73
2022/09/28 01:48:57;;;;;;;7.88;5.72;;;;;;;9.15;100.00;98350.84;4881614;29;20044;-75
2022/09/28 01:51:37;;;;;;;6.30;5.43;;;;;;;9.20;100.00;98353.16;4893000;29;20041;-74
2022/09/28 01:54:11;;;;;;;9.48;6.18;;;;;;;9.21;100.00;98339.84;4883930;29;20167;-71
2022/09/28 01:56:48;;;;;;;7.82;5.70;;;;;;;9.32;100.00;98336.41;4893874;29;20424;-78
2022/09/28 01:59:20;;;;;;;8.45;5.53;;;;;;;9.31;100.00;98340.84;4887535;29;20115;-72
2022/09/28 02:01:59;;;;;;;7.53;5.40;;;;;;;9.30;100.00;98336.50;4884044;29;20100;-72
2022/09/28 02:04:48;;;;;;;8.65;6.10;;;;;;;9.27;100.00;98342.06;4892062;29;20400;-73
2022/09/28 02:07:32;;;;;;;9.65;5.93;;;;;;;9.24;100.00;98339.63;4883429;29;20080;-73
2022/09/28 02:10:08;;;;;;;7.82;5.57;;;;;;;9.13;100.00;98326.34;4892090;29;20139;-75
2022/09/28 02:12:58;;;;;;;8.57;6.13;;;;;;;9.21;100.00;98324.00;4885601;29;20060;-74
2022/09/28 02:15:41;;;;;;;6.85;5.65;;;;;;;9.20;100.00;98327.59;4885645;29;20167;-76
2022/09/28 02:18:09;;;;;;;8.80;6.40;;;;;;;9.12;100.00;98349.31;4884163;29;20053;-72
2022/09/28 02:20:37;;;;;;;8.48;6.40;;;;;;;9.04;100.00;98349.00;4885092;29;20062;-77
2022/09/28 02:23:06;;;;;;;3.47;2.80;;;;;;;8.86;100.00;98345.06;4883080;29;20081;-74
2022/09/28 02:25:39;;;;;;;3.50;2.08;;;;;;;8.64;100.00;98315.94;4887604;29;20070;-75
2022/09/28 02:28:12;;;;;;;3.28;1.50;;;;;;;8.67;100.00;98345.53;4890355;29;20095;-76
2022/09/28 02:30:42;;;;;;;3.13;1.20;;;;;;;8.62;100.00;98338.94;4883242;29;20059;-74
2022/09/28 02:33:28;;;;;;;2.30;1.23;;;;;;;8.59;100.00;98344.41;4883966;29;20100;-74
2022/09/28 02:35:57;;;;;;;2.47;1.05;;;;;;;8.47;100.00;98329.47;4884467;29;20049;-73
2022/09/28 02:38:23;;;;;;;1.90;1.40;;;;;;;8.54;100.00;98349.16;4895343;29;20054;-76
2022/09/28 02:41:03;;;;;;;2.17;1.95;;;;;;;8.49;100.00;98336.34;4888089;29;20075;-75
2022/09/28 02:44:07;;;;;;;2.67;2.03;;;;;;;8.51;100.00;98339.69;4879223;29;20139;-73
2022/09/28 02:46:43;;;;;;;3.20;2.30;;;;;;;8.33;100.00;98304.94;4894586;29;20155;-75
2022/09/28 02:49:26;;;;;;;2.92;2.10;;;;;;;8.51;100.00;98337.03;4884129;29;20103;-73
2022/09/28 02:52:02;;;;;;;2.45;1.50;;;;;;;8.48;100.00;98324.09;4885733;29;20082;-73
2022/09/28 02:54:35;;;;;;;1.30;1.05;;;;;;;8.36;100.00;98309.97;4887663;29;20048;-75
2022/09/28 02:57:11;;;;;;;1.13;1.00;;;;;;;8.29;100.00;98319.25;4889053;29;20060;-74
2022/09/28 03:00:11;;;;;;;1.17;0.95;;;;;;;8.24;100.00;98318.72;4891038;29;20556;-75
2022/09/28 03:03:04;;;;;;;1.63;0.90;;;;;;;8.22;100.00;98319.75;4887758;29;20052;-73
2022/09/28 03:05:43;;;;;;;1.52;0.80;;;;;;;8.21;100.00;98320.72;4892758;29;20057;-72
2022/09/28 03:08:26;;;;;;;1.35;0.80;;;;;;;8.22;100.00;98328.53;4886087;29;20136;-73
2022/09/28 03:10:58;;;;;;;1.65;0.85;;;;;;;8.17;100.00;98314.84;4896937;29;20140;-73
2022/09/28 03:13:27;;;;;;;1.20;0.60;;;;;;;8.20;100.00;98329.56;4891451;29;20492;-73
2022/09/28 03:16:07;;;;;;;1.20;0.90;;;;;;;8.15;100.00;98316.72;4886911;29;20137;-73
2022/09/28 03:18:34;;;;;;;0.68;0.68;;;;;;;8.19;100.00;98318.19;4888868;29;20051;-74
2022/09/28 03:21:02;;;;;;;0.75;0.70;;;;;;;8.18;100.00;98323.59;4887934;29;20057;-73
2022/09/28 03:23:29;;;;;;;1.35;0.90;;;;;;;8.22;100.00;98331.16;4891112;29;20053;-72
2022/09/28 03:25:55;;;;;;;2.67;1.00;;;;;;;8.20;100.00;98319.88;4886001;29;20060;-73
2022/09/28 03:28:22;;;;;;;2.55;1.25;;;;;;;8.24;100.00;98323.13;4892297;29;20073;-71
2022/09/28 03:30:51;;;;;;;1.88;1.20;;;;;;;7.99;100.00;98290.59;4885424;29;20048;-72
2022/09/28 03:33:18;;;;;;;2.08;1.20;;;;;;;8.14;100.00;98315.06;4883609;29;20107;-71
2022/09/28 03:35:47;;;;;;;1.30;1.10;;;;;;;8.20;100.00;98330.41;4889314;29;20052;-71
2022/09/28 03:38:13;;;;;;;1.98;1.30;;;;;;;8.25;100.00;98328.31;4883946;29;20104;-72
2022/09/28 03:40:40;;;;;;;1.73;1.30;;;;;;;8.31;100.00;98329.69;4882933;29;20053;-71
2022/09/28 03:43:07;;;;;;;1.52;1.13;;;;;;;8.31;100.00;98327.88;4893448;29;20160;-72
2022/09/28 03:45:33;;;;;;;1.70;1.35;;;;;;;8.27;100.00;98325.56;4888418;29;20088;-71
2022/09/28 03:48:00;;;;;;;1.38;1.15;;;;;;;8.26;100.00;98319.44;4887237;29;20079;-73
2022/09/28 03:50:27;;;;;;;2.17;1.33;;;;;;;8.29;100.00;98311.34;4887287;29;20563;-70
2022/09/28 03:52:53;;;;;;;1.63;1.20;;;;;;;8.29;100.00;98318.41;4894359;29;20128;-70
2022/09/28 03:55:20;;;;;;;2.75;1.42;;;;;;;8.27;100.00;98310.59;4886395;29;20053;-73
2022/09/28 03:57:53;;;;;;;2.38;1.25;;;;;;;8.28;100.00;98312.28;4894340;29;20049;-72
2022/09/28 04:00:20;;;;;;;2.55;1.20;;;;;;;8.29;100.00;98307.84;4886576;29;20078;-72
2022/09/28 04:02:46;;;;;;;2.50;1.27;;;;;;;8.20;100.00;98311.13;4892795;29;20052;-72
2022/09/28 04:05:13;;;;;;;4.07;1.10;;;;;;;8.19;100.00;98317.34;4892807;29;20078;-72
2022/09/28 04:07:40;;;;;;;3.22;1.58;;;;;;;8.13;100.00;98320.41;4888420;29;20048;-72
2022/09/28 04:10:07;;;;;;;2.72;1.30;;;;;;;8.06;100.00;98325.25;4870701;29;20059;-70
2022/09/28 04:12:33;;;;;;;1.63;1.40;;;;;;;8.07;100.00;98333.06;4888995;29;20051;-71
2022/09/28 04:15:00;;;;;;;2.30;1.60;;;;;;;7.94;100.00;98305.88;4891595;29;20407;-72
2022/09/28 04:17:26;;;;;;;2.25;1.52;;;;;;;8.04;100.00;98322.72;4889586;29;20063;-72
2022/09/28 04:19:53;;;;;;;3.65;1.63;;;;;;;8.10;100.00;98334.66;4887166;29;20136;-71
2022/09/28 04:22:19;;;;;;;1.95;1.50;;;;;;;8.09;100.00;98331.19;4890285;29;20069;-72
2022/09/28 04:24:46;;;;;;;3.65;1.98;;;;;;;8.06;100.00;98328.75;4893551;29;20111;-70
2022/09/28 04:29:59;;;;;;;3.05;2.03;;;;;;;8.14;100.00;98335.28;4894289;29;20055;-71
2022/09/28 04:32:26;;;;;;;2.92;2.10;;;;;;;8.19;100.00;98334.00;4886520;29;20109;-72
2022/09/28 04:34:52;;;;;;;5.85;2.13;;;;;;;8.22;100.00;98335.59;4887944;29;20143;-71
2022/09/28 04:37:19;;;;;;;3.90;2.42;;;;;;;8.17;100.00;98328.03;4889286;29;20049;-73
2022/09/28 04:39:45;;;;;;;4.35;2.17;;;;;;;8.34;100.00;98342.69;4889080;29;20053;-73
2022/09/28 04:42:14;;;;;;;6.28;2.00;;;;;;;8.38;100.00;98341.50;4886339;29;20049;-70
2022/09/28 04:44:41;;;;;;;2.95;2.20;;;;;;;8.34;100.00;98345.34;4888558;29;20083;-69
2022/09/28 04:47:08;;;;;;;2.80;2.10;;;;;;;8.29;100.00;98342.13;4892014;29;20131;-71
2022/09/28 04:49:35;;;;;;;4.72;2.40;;;;;;;8.32;100.00;98340.16;4879314;29;20148;-70
2022/09/28 04:52:03;;;;;;;3.88;2.30;;;;;;;8.32;100.00;98344.59;4894265;29;20076;-70
2022/09/28 04:54:30;;;;;;;3.45;2.08;;;;;;;8.28;100.00;98341.28;4886096;29;20741;-72
2022/09/28 04:56:57;;;;;;;2.63;2.15;;;;;;;8.30;100.00;98342.03;4886904;29;20084;-70
2022/09/28 04:59:24;;;;;;;3.30;2.25;;;;;;;8.34;100.00;98327.69;4888003;29;20525;-72
2022/09/28 05:01:52;;;;;;;3.78;2.42;;;;;;;8.47;100.00;98346.16;4882910;29;20427;-72
2022/09/28 05:04:19;;;;;;;2.45;2.15;;;;;;;8.47;100.00;98350.56;4897161;29;20048;-71
2022/09/28 05:06:51;;;;;;;2.55;2.33;;;;;;;8.48;100.00;98353.09;4886224;29;20484;-70
2022/09/28 05:09:17;;;;;;;2.25;1.90;;;;;;;8.55;100.00;98353.50;4895920;29;20056;-72
2022/09/28 05:11:44;;;;;;;3.60;2.35;;;;;;;8.54;100.00;98346.53;4885548;29;20053;-72
2022/09/28 05:14:11;;;;;;;3.03;1.90;;;;;;;8.41;100.00;98352.69;4888060;29;20048;-72
2022/09/28 05:16:37;;;;;;;3.05;1.83;;;;;;;8.23;100.00;98338.13;4885069;29;20063;-71
2022/09/28 05:19:05;;;;;;;4.38;2.75;;;;;;;8.39;100.00;98372.19;4890402;29;20049;-71
2022/09/28 05:21:31;;;;;;;3.33;2.25;;;;;;;8.37;100.00;98366.19;4887279;29;20160;-74
2022/09/28 05:23:58;;;;;;;4.35;2.30;;;;;;;8.36;100.00;98365.34;4894229;29;20400;-72
2022/09/28 05:26:24;;;;;;;4.38;2.40;;;;;;;8.36;100.00;98370.63;4883195;29;20073;-72
2022/09/28 05:28:51;;;;;;;3.38;1.80;;;;;;;8.40;100.00;98382.66;4887328;29;20059;-71
2022/09/28 05:31:18;;;;;;;5.55;2.60;;;;;;;8.18;100.00;98353.44;4886260;29;20049;-72
2022/09/28 05:33:44;;;;;;;2.78;2.15;;;;;;;8.29;100.00;98381.69;4888193;29;20124;-69
2022/09/28 05:36:11;;;;;;;3.22;2.05;;;;;;;8.31;100.00;98385.06;4895378;29;20062;-71
2022/09/28 05:38:37;;;;;;;2.75;1.90;;;;;;;8.32;100.00;98397.34;4893101;29;20060;-71
2022/09/28 05:41:04;;;;;;;3.17;2.10;;;;;;;8.31;100.00;98392.97;4883471;29;20492;-72
2022/09/28 05:43:32;;;;;;;3.33;1.80;;;;;;;8.31;100.00;98392.97;4895055;29;20420;-72
2022/09/28 05:45:59;;;;;;;4.03;1.83;;;;;;;8.38;100.00;98391.59;4892026;29;20049;-73
2022/09/28 05:48:27;;;;;;;2.70;1.90;;;;;;;8.36;100.00;98386.44;4885029;29;20530;-72
2022/09/28 05:50:53;;;;;;;3.60;2.05;;;;;;;8.15;100.00;98358.06;4885594;29;20124;-72
2022/09/28 05:53:20;;;;;;;4.07;2.30;;;;;;;8.27;100.00;98386.22;4890841;29;20414;-72
2022/09/28 05:55:47;;;;;;;3.85;2.22;;;;;;;8.35;100.00;98392.66;4889119;29;20060;-72
2022/09/28 05:58:14;;;;;;;3.58;2.20;;;;;;;8.39;100.00;98388.03;4884492;29;20148;-72
2022/09/28 06:00:41;;;;;;;7.05;1.75;;;;;;;8.31;100.00;98404.38;4887710;29;20053;-72
2022/09/28 06:03:10;;;;;;;5.43;2.25;;;;;;;8.20;100.00;98391.06;4881149;29;20044;-72
2022/09/28 06:05:40;;;;;;;4.68;1.75;;;;;;;8.00;100.00;98375.78;4891581;29;20977;-73
2022/09/28 06:08:11;;;;;;;2.40;1.52;;;;;;;7.92;100.00;98381.56;4883518;29;20049;-73
2022/09/28 06:10:38;;;;;;;3.20;1.42;;;;;;;7.95;100.00;98394.53;4886518;29;20087;-73
2022/09/28 06:13:06;;;;;;;5.80;1.70;;;;;;;7.89;100.00;98396.75;4868253;29;20389;-73
2022/09/28 06:15:34;;;;;;;4.30;1.70;;;;;;;7.88;100.00;98400.31;4884218;29;20056;-70
2022/09/28 06:18:03;;;;;;;3.20;1.40;;;;;;;7.89;100.00;98408.13;4884540;29;20423;-71
2022/09/28 06:20:35;;;;;;;3.35;1.48;;;;;;;7.91;100.00;98408.88;4891269;29;20128;-73
2022/09/28 06:23:02;;;;;;;4.97;1.70;;;;;;;7.91;100.00;98411.50;4885959;29;20128;-72
2022/09/28 06:25:29;;;;;;;6.45;1.80;;;;;;;7.86;100.00;98412.78;4884972;29;20503;-72
2022/09/28 06:28:01;;;;;;;2.88;1.63;;;;;;;7.90;100.00;98419.50;4885773;29;20049;-74
2022/09/28 06:30:29;;;;;;;4.47;1.75;;;;;;;7.90;100.00;98420.34;4885275;29;20426;-70
2022/09/28 06:32:57;;;;;;;2.40;1.52;;;;;;;7.95;100.00;98428.81;4882580;29;20081;-72
2022/09/28 06:35:27;;;;;;;4.78;1.50;;;;;;;8.03;100.00;98425.63;4886943;29;20044;-70
2022/09/28 06:37:53;;;;;;;2.85;1.48;;;;;;;8.14;100.00;98425.78;4882587;29;20053;-72
2022/09/28 06:40:29;;;;;;;3.92;1.50;;;;;;;8.31;100.00;98438.66;5135823;27;20628;-72
2022/09/28 06:43:08;;;;;;;4.28;1.67;;;;;;;8.48;100.00;98440.16;5125830;27;20470;-71
2022/09/28 06:45:37;;;;;;;1.77;1.42;;;;;;;8.50;100.00;98434.78;5113635;28;20061;-72
2022/09/28 06:48:04;;;;;;;2.95;1.30;;;;;;;8.51;100.00;98439.06;5114248;28;20059;-72
2022/09/28 06:50:33;;;;;;;2.80;1.30;;;;;;;8.41;100.00;98431.81;5127288;27;20090;-73
2022/09/28 06:53:00;;;;;;;3.30;1.60;;;;;;;8.49;100.00;98448.91;5127286;27;20047;-73
2022/09/28 06:55:27;;;;;;;3.88;1.65;;;;;;;8.58;100.00;98442.97;5126832;28;20057;-74
2022/09/28 06:58:02;;;;;;;3.15;1.67;;;;;;;8.64;100.00;98445.22;5122908;27;20130;-71
2022/09/28 07:00:32;;;;;;;2.63;1.80;;;;;;;8.66;100.00;98430.94;5126968;27;20141;-72
2022/09/28 07:03:05;;;;;;;5.70;3.25;;;;;;;8.81;100.00;98458.06;5127133;27;20039;-72
2022/09/28 07:05:35;;;;;;;3.53;1.13;;;;;;;8.76;100.00;98465.44;5127278;28;20068;-75
2022/09/28 07:08:03;;;;;;;1.58;1.20;;;;;;;8.90;100.00;98467.13;5127484;27;20090;-73
2022/09/28 07:10:30;;;;;;;1.60;1.50;;;;;;;9.07;100.00;98464.13;5126608;27;20051;-73
2022/09/28 07:13:01;;;;;;;3.30;1.35;;;;;;;9.32;100.00;98469.31;5126770;27;20418;-75
2022/09/28 07:15:28;;;;;;;1.52;0.90;;;;;;;9.58;100.00;98479.81;5120884;27;20091;-73
2022/09/28 07:18:02;;;;;;;2.80;0.98;;;;;;;9.78;100.00;98481.78;5127004;27;20070;-72
2022/09/28 07:20:32;;;;;;;2.38;0.90;;;;;;;10.06;100.00;98485.91;5123621;27;20047;-73
2022/09/28 07:23:07;;;;;;;4.93;2.75;;;;;;;10.22;100.00;98482.97;5126764;27;20104;-70
2022/09/28 07:25:46;;;;;;;2.75;1.00;;;;;;;10.24;99.86;98476.56;5124818;28;20059;-69
2022/09/28 07:28:14;;;;;;;2.63;2.22;;;;;;;10.22;99.08;98490.91;5126479;27;20118;-71
2022/09/28 07:30:42;;;;;;;3.75;1.00;;;;;;;10.21;98.23;98495.34;5116398;28;20131;-74
2022/09/28 07:33:11;;;;;;;1.40;1.10;;;;;;;10.30;94.00;98497.28;5124730;28;20051;-69
2022/09/28 07:35:38;;;;;;;2.25;0.90;;;;;;;10.32;93.76;98500.66;5126376;27;20411;-71
2022/09/28 07:38:05;;;;;;;2.88;0.98;;;;;;;10.29;98.25;98494.75;5126431;27;20457;-74
2022/09/28 07:43:20;;;;;;;2.03;0.80;;;;;;;10.07;95.39;98512.19;5129111;27;20055;-70
2022/09/28 07:45:49;;;;;;;2.72;1.13;;;;;;;9.93;94.81;98517.66;5127988;27;20469;-72
2022/09/28 07:48:17;;;;;;;1.60;1.20;;;;;;;9.80;96.76;98522.19;5126243;27;20075;-73
2022/09/28 07:50:50;;;;;;;2.35;1.35;;;;;;;9.67;97.96;98524.03;5115757;28;20140;-70
2022/09/28 07:53:22;;;;;;;3.15;1.52;;;;;;;9.62;97.89;98532.28;5111986;28;20048;-72
2022/09/28 07:55:56;;;;;;;1.75;1.05;;;;;;;9.58;99.40;98525.56;5112114;28;20150;-68
2022/09/28 07:58:22;;;;;;;2.17;1.30;;;;;;;9.51;100.00;98534.88;5112648;28;20051;-69
2022/09/28 08:00:49;;;;;;;3.05;1.83;;;;;;;9.48;100.00;98532.44;5111834;28;20051;-72
2022/09/28 08:03:17;;;;;;;4.35;1.80;;;;;;;9.43;100.00;98529.31;5112224;28;20055;-74
2022/09/28 08:05:45;;;;;;;3.92;1.50;;;;;;;9.56;100.00;98543.31;5110707;28;20071;-70
2022/09/28 08:08:13;;;;;;;2.33;1.33;;;;;;;9.54;100.00;98549.66;5099100;28;20039;-75
2022/09/28 08:10:43;;;;;;;1.75;1.48;;;;;;;9.55;100.00;98548.72;5112008;28;20070;-71
2022/09/28 08:13:13;;;;;;;3.17;1.42;;;;;;;9.66;100.00;98549.63;5112529;28;20054;-70
2022/09/28 08:15:41;;;;;;;4.78;1.60;;;;;;;9.73;99.92;98535.03;5111229;28;20564;-71
2022/09/28 08:18:08;;;;;;;3.78;1.02;;;;;;;10.02;99.04;98554.03;5112323;28;20040;-71
2022/09/28 08:23:20;;;;;;;3.35;1.50;;;;;;;10.30;96.48;98558.13;5105960;28;20043;-70
2022/09/28 08:25:47;;;;;;;1.63;1.00;;;;;;;10.38;90.99;98566.34;5111473;28;20047;-71
2022/09/28 08:28:18;;;;;;;5.30;1.20;;;;;;;10.33;91.73;98557.06;5107738;28;20047;-71
2022/09/28 08:30:46;;;;;;;1.15;0.90;;;;;;;10.32;90.86;98565.97;5111286;28;20397;-70
2022/09/28 08:33:14;;;;;;;3.17;1.13;;;;;;;10.20;89.54;98562.44;5111723;28;20439;-70
2022/09/28 08:35:41;;;;;;;2.67;1.17;;;;;;;10.01;90.91;98573.50;5107664;28;20652;-71
2022/09/28 08:38:08;;;;;;;1.42;1.10;;;;;;;9.94;91.61;98566.94;5109991;28;20062;-77
2022/09/28 08:41:13;;;;;;;3.13;1.10;;;;;;;9.80;94.98;98577.69;5099245;28;20657;-73
2022/09/28 08:43:50;;;;;;;2.03;1.15;;;;;;;9.83;95.99;98585.41;5111871;28;20044;-70
2022/09/28 08:46:21;;;;;;;2.30;1.25;;;;;;;9.81;94.54;98576.75;5106746;28;20422;-74
2022/09/28 08:49:00;;;;;;;2.60;1.30;;;;;;;9.80;96.41;98580.34;5111455;28;20062;-72
2022/09/28 08:51:52;;;;;;;4.00;0.93;;;;;;;9.85;95.90;98588.78;5109016;28;20048;-74
2022/09/28 08:54:44;;;;;;;4.03;1.00;;;;;;;9.89;95.52;98590.25;5103224;28;20505;-72
2022/09/28 08:57:13;;;;;;;1.92;1.10;;;;;;;9.91;95.58;98582.22;5103249;28;20475;-72
2022/09/28 08:59:39;;;;;;;1.98;1.10;;;;;;;10.03;96.75;98595.38;5111941;28;20055;-69
2022/09/28 09:02:14;;;;;;;3.50;1.25;;;;;;;10.11;95.26;98592.16;5110539;27;20122;-67
2022/09/28 09:04:41;;;;;;;2.53;1.10;;;;;;;10.14;92.55;98594.59;5111651;28;20063;-72
2022/09/28 09:07:45;;;;;;;2.65;0.80;;;;;;;10.17;90.16;98597.84;5111114;28;20063;-71
2022/09/28 09:10:37;;;;;;;1.58;0.82;;;;;;;10.20;88.46;98596.81;5104100;28;20039;-71
2022/09/28 09:13:41;;;;;;;2.55;1.10;;;;;;;10.12;89.81;98605.28;5109713;28;20372;-69
2022/09/28 09:16:16;;;;;;;2.92;0.98;;;;;;;10.19;89.82;98597.78;5110687;28;20498;-72
2022/09/28 09:19:08;;;;;;;1.80;0.88;;;;;;;10.39;88.92;98605.06;5112218;28;20044;-73
2022/09/28 09:21:39;;;;;;;1.35;0.88;;;;;;;10.41;88.17;98584.63;5099921;28;20049;-73
2022/09/28 09:24:26;;;;;;;4.28;0.90;;;;;;;10.64;83.95;98606.72;5112166;28;20151;-71
2022/09/28 09:27:04;;;;;;;3.35;0.77;;;;;;;10.64;86.18;98600.59;5107976;28;20055;-75
2022/09/28 09:29:49;;;;;;;2.00;0.60;;;;;;;10.73;86.71;98586.63;5114678;28;20051;-74
2022/09/28 09:32:39;;;;;;;1.90;0.52;;;;;;;11.05;85.25;98613.31;5113860;28;20069;-71
2022/09/28 09:35:29;;;;;;;2.83;0.90;;;;;;;11.13;84.42;98603.81;5114306;28;20086;-71
2022/09/28 09:38:32;;;;;;;1.77;0.52;;;;;;;11.29;83.01;98610.56;5113209;28;20514;-73
2022/09/28 09:41:22;;;;;;;0.57;0.50;;;;;;;11.32;83.44;98610.34;5111553;28;20048;-72
2022/09/28 09:43:57;;;;;;;;;;;;;;;11.27;81.43;98597.44;5106726;28;20126;-69
2022/09/28 09:46:36;;;;;;;3.28;0.60;;;;;;;11.21;82.34;98609.34;5112454;28;19919;-69
2022/09/28 09:49:20;;;;;;;2.83;0.80;;;;;;;11.13;80.84;98618.88;5111814;28;20154;-71
2022/09/28 09:51:55;;;;;;;1.67;0.80;;;;;;;11.30;79.85;98609.59;5108743;28;20134;-72
2022/09/28 09:54:47;;;;;;;2.25;0.55;;;;;;;11.44;77.05;98610.22;5096737;28;20043;-75
2022/09/28 09:57:39;;;;;;;1.23;0.45;;;;;;;11.50;76.31;98616.81;5110222;28;20047;-73
2022/09/28 10:00:14;;;;;;;1.38;0.60;;;;;;;11.48;75.51;98603.72;5105968;28;20055;-72
2022/09/28 10:02:43;;;;;;;1.77;0.60;;;;;;;11.62;75.41;98615.88;5110081;28;20476;-69
2022/09/28 10:05:10;;;;;;;2.75;0.63;;;;;;;11.66;73.48;98609.34;5101161;28;20050;-70
2022/09/28 10:08:07;;;;;;;1.42;0.70;;;;;;;11.68;74.15;98606.56;5110155;28;20494;-72
2022/09/28 10:10:36;;;;;;;2.88;0.70;;;;;;;11.70;73.63;98617.91;5109576;28;20192;-74
2022/09/28 10:13:03;;;;;;;2.15;0.90;;;;;;;11.74;74.30;98622.00;5109710;28;20119;-71
2022/09/28 10:15:34;;;;;;;4.00;0.60;;;;;;;11.85;73.93;98617.53;5087377;28;20052;-68
2022/09/28 10:18:05;;;;;;;3.67;0.82;;;;;;;11.93;74.43;98593.91;5109613;28;20064;-70
2022/09/28 10:20:43;;;;;;;2.45;0.68;;;;;;;11.94;72.56;98595.59;5106738;28;20055;-73
2022/09/28 10:23:24;;;;;;;0.77;0.60;;;;;;;12.03;71.85;98612.56;5109343;28;20065;-72
2022/09/28 10:25:53;;;;;;;;;;;;;;;12.00;72.10;98625.22;5104966;28;20051;-73
2022/09/28 10:28:38;;;;;;;1.50;0.65;;;;;;;11.92;71.29;98624.06;5109727;28;19927;-74
2022/09/28 10:31:33;;;;;;;1.48;0.60;;;;;;;12.13;71.90;98617.97;5108477;28;20058;-73
2022/09/28 10:34:00;;;;;;;2.58;0.60;;;;;;;12.24;70.40;98596.72;5108786;28;20058;-71
2022/09/28 10:36:26;;;;;;;0.75;0.60;;;;;;;12.67;70.28;98619.69;5110734;28;20139;-71
2022/09/28 10:38:54;;;;;;;1.42;0.60;;;;;;;12.91;68.13;98625.59;5111096;28;20075;-70
2022/09/28 10:41:21;;;;;;;1.95;1.08;;;;;;;13.07;68.08;98620.66;5110509;28;20047;-72
2022/09/28 10:44:05;;;;;;;1.30;0.60;;;;;;;13.05;67.60;98609.34;5110770;28;20043;-70
2022/09/28 10:46:34;;;;;;;1.75;0.70;;;;;;;13.13;66.11;98628.13;5105996;28;20048;-74
2022/09/28 10:49:03;;;;;;;2.08;0.40;;;;;;;12.83;66.12;98606.81;5105623;28;20052;-72
2022/09/28 10:52:07;;;;;;;1.33;0.55;;;;;;;12.92;66.90;98624.63;5108286;28;20127;-73
2022/09/28 10:54:35;;;;;;;1.67;0.68;;;;;;;12.96;67.30;98640.19;5104275;28;20527;-71
2022/09/28 10:57:02;;;;;;;1.50;0.50;;;;;;;12.81;66.42;98640.63;5109148;28;20134;-72
2022/09/28 10:59:29;;;;;;;2.17;0.63;;;;;;;12.77;67.24;98634.72;5089916;28;20052;-72
2022/09/28 11:01:56;;;;;;;1.17;0.95;;;;;;;12.68;66.05;98639.97;5109181;28;20052;-72
2022/09/28 11:04:27;;;;;;;1.67;0.60;;;;;;;12.53;64.36;98642.09;5101396;28;20910;-72
2022/09/28 11:06:57;;;;;;;3.00;0.60;;;;;;;12.47;65.05;98642.59;5103320;28;20705;-73
2022/09/28 11:09:28;;;;;;;2.67;0.60;;;;;;;12.39;65.43;98614.03;5107754;28;20396;-71
2022/09/28 11:12:03;;;;;;;1.42;0.50;;;;;;;12.54;66.15;98622.53;5109031;28;20483;-74
2022/09/28 11:14:36;;;;;;;1.42;0.52;;;;;;;12.84;66.80;98624.44;5109449;28;20133;-72
2022/09/28 11:17:29;;;;;;;1.52;0.65;;;;;;;13.06;64.94;98634.94;5109378;28;20043;-71
2022/09/28 11:20:22;;;;;;;2.50;0.70;;;;;;;13.22;66.45;98626.53;5107936;28;20044;-73
2022/09/28 11:22:58;;;;;;;1.10;0.40;;;;;;;13.30;62.65;98627.56;5101471;28;20104;-71
2022/09/28 11:25:27;;;;;;;2.55;0.50;;;;;;;13.38;62.10;98626.88;5109532;28;20108;-73
2022/09/28 11:28:03;;;;;;;1.10;0.50;;;;;;;13.04;61.58;98604.16;5113863;28;20047;-70
2022/09/28 11:30:41;;;;;;;2.10;0.80;;;;;;;13.02;63.79;98616.72;5112402;28;20098;-70
2022/09/28 11:33:27;;;;;;;2.08;0.80;;;;;;;13.11;62.25;98629.22;5113248;27;20134;-71
2022/09/28 11:36:12;;;;;;;1.33;0.63;;;;;;;13.21;63.22;98623.03;5108432;28;20044;-73
2022/09/28 11:38:48;;;;;;;1.17;0.50;;;;;;;13.45;63.21;98625.38;5111243;28;20055;-71
2022/09/28 11:41:32;;;;;;;1.30;0.68;;;;;;;13.46;60.96;98618.25;5108756;28;20389;-73
2022/09/28 11:44:27;;;;;;;1.33;0.80;;;;;;;13.69;60.14;98620.56;5112821;28;20051;-72
2022/09/28 11:47:18;;;;;;;1.77;0.60;;;;;;;13.77;60.24;98625.22;5111225;28;20047;-71
2022/09/28 11:50:22;;;;;;;2.25;0.75;;;;;;;13.56;59.41;98627.94;5112840;28;20043;-70
2022/09/28 11:52:52;;;;;;;1.45;0.70;;;;;;;13.36;61.06;98626.19;5108172;28;20048;-73
2022/09/28 11:55:28;;;;;;;0.80;0.40;;;;;;;13.15;60.75;98607.59;5111204;28;20047;-76
2022/09/28 11:58:10;;;;;;;2.25;0.60;;;;;;;13.17;60.57;98626.06;5111909;28;20153;-76
2022/09/28 12:00:49;;;;;;;2.83;0.80;;;;;;;13.07;61.33;98612.69;5112366;28;20043;-73
2022/09/28 12:03:29;;;;;;;0.63;0.60;;;;;;;13.13;61.19;98637.91;5113146;28;20184;-74
2022/09/28 12:06:03;;;;;;;1.48;0.70;;;;;;;13.14;60.83;98626.31;5112050;28;20059;-72
2022/09/28 12:08:43;;;;;;;3.45;0.60;;;;;;;13.30;60.73;98630.22;5113020;28;20051;-72
2022/09/28 12:11:30;;;;;;;1.27;0.50;;;;;;;13.10;60.61;98628.38;5111384;28;20554;-72